createdAt,value
2022-12-22T00:01:16.291Z,1.75
2022-12-22T00:06:37.977Z,1.99
2022-12-22T00:11:59.752Z,2.44
2022-12-22T00:17:22.074Z,3.01
2022-12-22T00:22:44.855Z,3.18
2022-12-22T00:28:07.564Z,2.92
2022-12-22T00:33:31.691Z,2.68
2022-12-22T00:38:53.313Z,2.58
2022-12-22T00:44:16.327Z,2.50
2022-12-22T00:49:38.571Z,2.29
2022-12-22T00:55:00.282Z,2.09
2022-12-22T01:00:23.781Z,1.86
2022-12-22T01:05:46.231Z,1.73
2022-12-22T01:11:08.669Z,1.67
2022-12-22T01:16:31.878Z,1.57
2022-12-22T01:21:55.179Z,1.43
2022-12-22T01:27:17.538Z,1.52
2022-12-22T01:32:40.323Z,1.67
2022-12-22T01:38:02.781Z,1.90
2022-12-22T01:43:38.583Z,2.03
2022-12-22T01:49:00.296Z,2.10
2022-12-22T01:54:22.147Z,2.01
2022-12-22T01:59:44.545Z,1.85
2022-12-22T02:05:07.448Z,1.67
2022-12-22T02:11:03.518Z,1.56
2022-12-22T02:16:45.417Z,1.62
2022-12-22T02:22:29.236Z,1.59
2022-12-22T02:27:55.647Z,2.11
2022-12-22T02:33:17.227Z,2.19
2022-12-22T02:38:46.780Z,2.31
2022-12-22T02:44:27.843Z,2.39
2022-12-22T02:50:14.588Z,2.30
2022-12-22T02:55:37.849Z,2.33
2022-12-22T03:01:00.729Z,2.49
2022-12-22T03:06:23.234Z,2.49
2022-12-22T03:11:45.803Z,2.58
2022-12-22T03:17:07.996Z,2.54
2022-12-22T03:22:29.630Z,2.37
2022-12-22T03:27:33.490Z,2.28
2022-12-22T03:32:36.654Z,2.00
2022-12-22T03:37:40.700Z,1.87
2022-12-22T03:43:03.300Z,1.66
2022-12-22T03:48:06.631Z,1.50
2022-12-22T03:53:10.404Z,1.35
2022-12-22T03:58:13.552Z,1.29
2022-12-22T04:03:17.713Z,1.15
2022-12-22T04:08:21.608Z,1.07
2022-12-22T04:13:24.672Z,0.96
2022-12-22T04:18:28.249Z,0.99
2022-12-22T04:23:31.938Z,1.00
2022-12-22T04:28:35.616Z,1.00
2022-12-22T04:33:38.800Z,1.02
2022-12-22T04:38:41.987Z,1.02
2022-12-22T04:43:45.003Z,1.00
2022-12-22T04:48:48.194Z,0.99
2022-12-22T04:53:51.283Z,0.72
2022-12-22T04:58:54.441Z,1.02
2022-12-22T05:03:58.114Z,1.14
2022-12-22T05:09:01.741Z,1.37
2022-12-22T05:14:07.330Z,1.47
2022-12-22T05:19:11.251Z,1.66
2022-12-22T05:24:14.358Z,1.64
2022-12-22T05:29:18.109Z,1.63
2022-12-22T05:34:21.411Z,1.68
2022-12-22T05:39:24.569Z,1.77
2022-12-22T05:44:28.462Z,1.79
2022-12-22T05:49:31.535Z,1.80
2022-12-22T05:54:35.281Z,1.80
2022-12-22T05:59:38.692Z,1.73
2022-12-22T06:04:42.914Z,1.91
2022-12-22T06:09:46.270Z,1.97
2022-12-22T06:14:49.386Z,1.93
2022-12-22T06:19:53.511Z,1.93
2022-12-22T06:24:56.910Z,1.99
2022-12-22T06:30:00.321Z,2.05
2022-12-22T06:35:04.316Z,2.25
2022-12-22T06:40:08.828Z,2.49
2022-12-22T06:45:12.026Z,2.65
2022-12-22T06:50:15.940Z,2.81
2022-12-22T06:55:20.171Z,3.13
2022-12-22T07:00:23.875Z,3.51
2022-12-22T07:05:27.727Z,3.97
2022-12-22T07:10:49.455Z,7.38
2022-12-22T07:16:00.004Z,8.32
2022-12-22T07:21:06.942Z,7.81
2022-12-22T07:26:11.020Z,9.70
2022-12-22T07:31:17.663Z,12.78
2022-12-22T07:36:21.465Z,14.81
2022-12-22T07:41:43.710Z,17.06
2022-12-22T07:46:48.246Z,16.85
2022-12-22T07:51:52.061Z,18.06
2022-12-22T07:56:55.508Z,15.19
2022-12-22T08:01:58.676Z,16.94
2022-12-22T08:07:02.479Z,17.45
2022-12-22T08:12:05.965Z,18.86
2022-12-22T08:17:09.449Z,20.60
2022-12-22T08:22:13.125Z,20.84
2022-12-22T08:27:25.688Z,18.61
2022-12-22T08:32:30.116Z,19.34
2022-12-22T08:37:41.583Z,18.82
2022-12-22T08:42:46.272Z,17.72
2022-12-22T08:47:49.354Z,18.59
2022-12-22T08:52:53.496Z,18.87
2022-12-22T08:57:56.618Z,18.19
2022-12-22T09:03:00.440Z,17.43
2022-12-22T09:08:04.464Z,17.55
2022-12-22T09:13:08.013Z,17.99
2022-12-22T09:18:12.000Z,17.29
2022-12-22T09:23:15.071Z,14.48
2022-12-22T09:28:18.967Z,15.76
2022-12-22T09:33:22.718Z,17.32
2022-12-22T09:38:29.967Z,17.31
2022-12-22T09:43:33.168Z,16.72
2022-12-22T09:48:38.101Z,16.11
2022-12-22T09:53:43.053Z,14.96
2022-12-22T09:58:47.500Z,16.96
2022-12-22T10:04:01.361Z,17.21
2022-12-22T10:09:49.121Z,16.10
2022-12-22T10:14:51.723Z,15.73
2022-12-22T10:20:22.800Z,15.99
2022-12-22T10:25:52.426Z,15.09
2022-12-22T10:31:23.169Z,15.56
2022-12-22T10:36:32.610Z,15.26
2022-12-22T10:41:44.209Z,15.73
2022-12-22T10:46:51.164Z,15.43
2022-12-22T10:52:15.480Z,15.58
2022-12-22T10:57:19.877Z,14.23
2022-12-22T11:02:38.805Z,13.81
2022-12-22T11:07:45.170Z,13.59
2022-12-22T11:13:02.588Z,13.99
2022-12-22T11:18:47.879Z,14.03
2022-12-22T11:24:08.926Z,13.89
2022-12-22T11:29:37.467Z,13.69
2022-12-22T11:34:44.611Z,14.01
2022-12-22T11:39:59.699Z,14.09
2022-12-22T11:45:43.892Z,14.33
2022-12-22T11:50:59.117Z,14.22
2022-12-22T11:56:23.155Z,14.64
2022-12-22T12:01:38.371Z,14.69
2022-12-22T12:06:59.586Z,14.87
2022-12-22T12:12:15.813Z,15.00
2022-12-22T12:17:42.133Z,15.32
2022-12-22T12:23:07.669Z,15.50
2022-12-22T12:28:17.749Z,15.49
2022-12-22T12:33:47.751Z,15.71
2022-12-22T12:39:08.057Z,15.65
2022-12-22T12:44:15.399Z,16.29
2022-12-22T12:49:37.182Z,16.85
2022-12-22T12:54:47.802Z,16.74
2022-12-22T12:59:54.001Z,17.30
2022-12-22T13:05:18.082Z,16.71
2022-12-22T13:10:28.067Z,16.66
2022-12-22T13:15:38.292Z,16.69
2022-12-22T13:20:42.579Z,16.77
2022-12-22T13:25:54.203Z,16.46
2022-12-22T13:31:06.721Z,16.02
2022-12-22T13:36:19.990Z,16.65
2022-12-22T13:41:27.770Z,16.99
2022-12-22T13:46:35.977Z,16.47
2022-12-22T13:51:40.218Z,16.32
2022-12-22T13:57:05.015Z,15.16
2022-12-22T14:02:11.599Z,14.00
2022-12-22T14:07:17.799Z,14.57
2022-12-22T14:12:24.127Z,14.03
2022-12-22T14:17:37.900Z,12.79
2022-12-22T14:22:46.221Z,12.76
2022-12-22T14:27:56.434Z,12.55
2022-12-22T14:33:16.593Z,12.15
2022-12-22T14:38:26.954Z,12.02
2022-12-22T14:43:32.436Z,12.08
2022-12-22T14:48:40.835Z,12.07
2022-12-22T14:53:46.122Z,11.69
2022-12-22T14:58:50.136Z,11.52
2022-12-22T15:04:05.124Z,11.41
2022-12-22T15:10:03.573Z,11.40
2022-12-22T15:14:50.082Z,11.19
2022-12-22T15:19:57.999Z,10.90
2022-12-22T15:25:02.159Z,10.77
2022-12-22T15:30:06.539Z,10.53
2022-12-22T15:35:26.609Z,10.22
2022-12-22T15:40:30.828Z,9.61
2022-12-22T15:45:36.569Z,9.68
2022-12-22T15:50:45.227Z,9.37
2022-12-22T15:55:51.578Z,9.04
2022-12-22T16:00:56.144Z,8.92
2022-12-22T16:06:01.244Z,8.99
2022-12-22T16:11:08.158Z,8.86
2022-12-22T16:16:12.449Z,8.98
2022-12-22T16:21:20.296Z,9.03
2022-12-22T16:26:23.712Z,8.77
2022-12-22T16:31:27.636Z,8.55
2022-12-22T16:36:30.883Z,8.24
2022-12-22T16:41:35.049Z,8.03
2022-12-22T16:46:42.354Z,7.76
2022-12-22T16:51:50.172Z,7.71
2022-12-22T16:56:54.185Z,7.39
2022-12-22T17:01:58.531Z,7.12
2022-12-22T17:07:03.497Z,6.83
2022-12-22T17:12:07.500Z,6.71
2022-12-22T17:17:21.973Z,6.63
2022-12-22T17:22:30.230Z,6.38
2022-12-22T17:27:35.158Z,6.35
2022-12-22T17:32:38.348Z,6.39
2022-12-22T17:37:41.808Z,6.41
2022-12-22T17:42:44.983Z,6.56
2022-12-22T17:47:48.436Z,6.64
2022-12-22T17:52:52.067Z,6.69
2022-12-22T17:57:55.291Z,6.59
2022-12-22T18:02:59.278Z,6.54
2022-12-22T18:08:02.540Z,6.50
2022-12-22T18:13:28.702Z,6.38
2022-12-22T18:18:32.802Z,6.18
2022-12-22T18:23:37.297Z,5.98
2022-12-22T18:28:40.475Z,5.76
2022-12-22T18:33:43.953Z,5.59
2022-12-22T18:38:49.517Z,5.38
2022-12-22T18:43:53.362Z,5.31
2022-12-22T18:49:03.427Z,5.14
2022-12-22T18:54:37.257Z,4.99
2022-12-22T18:59:40.856Z,4.89
2022-12-22T19:04:44.866Z,4.76
2022-12-22T19:09:49.898Z,4.64
2022-12-22T19:14:59.154Z,4.60
2022-12-22T19:20:02.650Z,4.47
2022-12-22T19:25:07.853Z,4.39
2022-12-22T19:30:18.437Z,4.50
2022-12-22T19:35:25.101Z,4.30
2022-12-22T19:40:31.524Z,4.39
2022-12-22T19:45:36.010Z,4.28
2022-12-22T19:50:39.557Z,4.22
2022-12-22T19:55:55.777Z,4.27
2022-12-22T20:00:59.919Z,4.11
2022-12-22T20:06:05.056Z,4.12
2022-12-22T20:11:15.288Z,4.19
2022-12-22T20:16:18.823Z,4.03
2022-12-22T20:21:30.515Z,4.01
2022-12-22T20:26:34.759Z,4.00
2022-12-22T20:31:38.488Z,4.04
2022-12-22T20:36:43.452Z,3.94
2022-12-22T20:41:52.670Z,3.93
2022-12-22T20:46:56.564Z,3.77
2022-12-22T20:52:00.113Z,3.71
2022-12-22T20:57:03.517Z,3.71
2022-12-22T21:02:25.512Z,3.97
2022-12-22T21:07:28.754Z,4.02
2022-12-22T21:12:32.855Z,3.87
2022-12-22T21:17:36.518Z,3.70
2022-12-22T21:22:39.528Z,3.72
2022-12-22T21:27:45.930Z,3.95
2022-12-22T21:32:50.025Z,3.82
2022-12-22T21:37:54.703Z,3.70
2022-12-22T21:42:58.381Z,3.72
2022-12-22T21:48:02.566Z,3.71
2022-12-22T21:53:05.709Z,3.69
2022-12-22T21:58:12.222Z,3.69
2022-12-22T22:03:16.138Z,3.61
2022-12-22T22:08:21.403Z,3.48
2022-12-22T22:13:24.853Z,3.49
2022-12-22T22:18:28.132Z,3.45
2022-12-22T22:23:31.188Z,3.43
2022-12-22T22:28:35.416Z,3.39
2022-12-22T22:33:39.119Z,3.65
2022-12-22T22:38:42.263Z,3.98
2022-12-22T22:43:46.952Z,4.31
2022-12-22T22:48:50.859Z,4.41
2022-12-22T22:53:54.310Z,4.58
2022-12-22T22:58:59.899Z,4.87
2022-12-22T23:04:03.446Z,4.96
2022-12-22T23:09:06.722Z,4.41
2022-12-22T23:14:10.266Z,4.20
2022-12-22T23:19:14.865Z,4.11
2022-12-22T23:24:17.973Z,4.19
2022-12-22T23:29:21.151Z,4.27
2022-12-22T23:34:25.478Z,4.55
2022-12-22T23:39:28.673Z,4.82
2022-12-22T23:44:31.747Z,4.61
2022-12-22T23:49:34.827Z,4.84
2022-12-22T23:54:37.923Z,5.01
2022-12-22T23:59:41.593Z,5.05
